Time;durP1;ratioP1;P1;durP2;ratioP2;P2;SDS_P1;SDS_P2;PMS_P1;PMS_P2;Temp;Humidity;BMP_temperature;BMP_pressure;BME280_temperature;BME280_humidity;BME280_pressure;Samples;Min_cycle;Max_cycle;Signal;HPM_P1;HPM_P2
2021/12/02 00:01:55;;;;;;;;;2.00;2.00;;;;;-147.17;100.00;50092.03;5050775;28;51154;-63
2021/12/02 00:04:20;;;;;;;;;5.00;4.00;;;;;-147.17;100.00;50119.59;5041954;28;51578;-63
2021/12/02 00:06:46;;;;;;;;;6.25;4.00;;;;;-147.17;100.00;50115.66;5039705;28;51125;-64
2021/12/02 00:09:11;;;;;;;;;5.00;3.50;;;;;-147.17;100.00;50135.34;5039651;28;51815;-61
2021/12/02 00:11:37;;;;;;;;;5.75;3.75;;;;;-147.17;100.00;50141.25;5049683;28;51183;-62
2021/12/02 00:14:09;;;;;;;;;4.00;4.00;;;;;-147.17;100.00;50178.66;5049657;28;51160;-63
2021/12/02 00:17:12;;;;;;;;;3.00;3.00;;;;;-147.17;100.00;50139.28;5041957;28;51140;-62
2021/12/02 00:22:11;;;;;;;;;3.00;3.00;;;;;-147.17;100.00;50111.72;5042782;28;51082;-72
2021/12/02 00:24:40;;;;;;;;;3.50;3.50;;;;;-147.17;100.00;50131.41;5040396;28;51168;-72
2021/12/02 00:27:08;;;;;;;;;3.75;3.75;;;;;-147.17;100.00;50166.84;5038667;28;51065;-72
2021/12/02 00:29:35;;;;;;;;;4.00;3.00;;;;;-147.17;100.00;50139.28;5045422;27;51699;-73
2021/12/02 00:32:06;;;;;;;;;4.50;4.00;;;;;-147.17;100.00;50127.47;5044672;28;51125;-71
2021/12/02 00:34:32;;;;;;;;;3.00;3.00;;;;;-147.17;100.00;50111.72;5046181;28;51333;-72
2021/12/02 00:37:00;;;;;;;;;2.75;2.75;;;;;-147.17;100.00;50139.28;5046013;28;51196;-70
2021/12/02 00:39:27;;;;;;;;;2.75;2.75;;;;;-147.17;100.00;50127.47;5042374;28;51104;-73
2021/12/02 00:41:55;;;;;;;;;2.75;2.25;;;;;-147.17;100.00;50139.28;5049274;28;51288;-69
2021/12/02 00:44:20;;;;;;;;;3.25;3.00;;;;;-147.17;100.00;50139.28;5050875;28;51206;-70
2021/12/02 00:46:47;;;;;;;;;3.00;1.00;;;;;-147.17;100.00;50149.13;5049841;28;51060;-68
2021/12/02 00:49:15;;;;;;;;;5.25;4.00;;;;;-147.17;100.00;50135.34;5056746;28;51984;-71
2021/12/02 00:51:44;;;;;;;;;3.50;3.00;;;;;-147.17;100.00;50155.03;5049595;28;50943;-72
2021/12/02 00:54:11;;;;;;;;;3.25;2.75;;;;;-147.17;100.00;50101.88;5047085;28;51154;-75
2021/12/02 00:56:38;;;;;;;;;4.00;3.50;;;;;-147.17;100.00;50135.34;5061623;28;51080;-69
2021/12/02 00:59:06;;;;;;;;;6.00;3.00;;;;;-147.17;100.00;50135.34;5052332;28;51853;-69
2021/12/02 01:01:36;;;;;;;;;2.00;2.00;;;;;-147.17;100.00;50151.09;5053646;28;51127;-69
2021/12/02 01:04:06;;;;;;;;;2.75;2.75;;;;;-147.17;100.00;50160.94;5053787;28;51242;-74
2021/12/02 01:06:32;;;;;;;;;5.00;4.00;;;;;-147.17;100.00;50107.78;5055269;28;50952;-70
2021/12/02 01:08:57;;;;;;;;;6.25;4.50;;;;;-147.17;100.00;50131.41;5054271;28;51322;-74
2021/12/02 01:11:23;;;;;;;;;3.50;3.00;;;;;-147.17;100.00;50125.50;5060021;28;51006;-74
2021/12/02 01:13:48;;;;;;;;;3.00;3.00;;;;;-147.17;100.00;50095.97;5051569;28;51322;-69
2021/12/02 01:16:15;;;;;;;;;4.00;4.00;;;;;-147.17;100.00;50129.44;5058764;28;51276;-71
2021/12/02 01:18:40;;;;;;;;;5.00;3.75;;;;;-147.17;100.00;50092.03;5060311;28;52060;-69
2021/12/02 01:21:06;;;;;;;;;4.75;4.00;;;;;-147.17;100.00;50145.19;5059517;28;50962;-70
2021/12/02 01:23:33;;;;;;;;;4.50;4.00;;;;;-147.17;100.00;50143.22;5056678;28;50955;-70
2021/12/02 01:26:07;;;;;;;;;4.75;4.75;;;;;-147.17;100.00;50133.38;5047482;28;50501;-68
2021/12/02 01:28:35;;;;;;;;;7.75;7.00;;;;;-147.17;100.00;50131.41;5060794;28;51049;-68
2021/12/02 01:31:00;;;;;;;;;8.00;7.00;;;;;-147.17;100.00;50115.66;5050292;28;51153;-69
2021/12/02 01:33:27;;;;;;;;;6.25;6.00;;;;;-147.17;100.00;50111.72;5043009;28;51284;-71
2021/12/02 01:36:03;;;;;;;;;7.00;6.50;;;;;-147.17;100.00;50103.84;5051762;28;51272;-70
2021/12/02 01:38:31;;;;;;;;;6.50;6.00;;;;;-147.17;100.00;50127.47;5050493;28;52092;-72
2021/12/02 01:40:58;;;;;;;;;7.00;7.00;;;;;-147.17;100.00;50111.72;5053011;28;51081;-71
2021/12/02 01:43:47;;;;;;;;;8.00;8.00;;;;;-147.17;100.00;50127.47;5058842;28;51105;-67
2021/12/02 01:46:15;;;;;;;;;7.25;6.75;;;;;-147.17;100.00;50113.69;5040469;28;51336;-69
2021/12/02 01:48:46;;;;;;;;;7.75;6.00;;;;;-147.17;100.00;50127.47;5047148;28;52098;-70
2021/12/02 01:51:12;;;;;;;;;9.00;8.00;;;;;-147.17;100.00;50160.94;5050009;28;51494;-69
2021/12/02 01:53:40;;;;;;;;;7.75;7.50;;;;;-147.17;100.00;50129.44;5050140;28;51274;-69
2021/12/02 01:56:13;;;;;;;;;9.00;8.25;;;;;-147.17;100.00;50127.47;5042095;28;50970;-73
2021/12/02 01:58:48;;;;;;;;;7.25;7.25;;;;;-147.17;100.00;50166.84;5057313;28;51783;-71
2021/12/02 02:01:25;;;;;;;;;13.00;9.50;;;;;-147.17;100.00;50143.22;5061356;28;51062;-75
2021/12/02 02:03:53;;;;;;;;;7.25;6.50;;;;;-147.17;100.00;50143.22;5057174;28;51068;-74
2021/12/02 02:06:28;;;;;;;;;7.00;7.00;;;;;-147.17;100.00;50131.41;5052008;28;50907;-74
2021/12/02 02:08:56;;;;;;;;;7.50;7.50;;;;;-147.17;100.00;50166.84;5056987;28;51174;-71
2021/12/02 02:11:27;;;;;;;;;0.00;0.00;;;;;-147.17;100.00;50139.28;5058800;28;51034;-71
2021/12/02 02:13:55;;;;;;;;;11.25;7.75;;;;;-147.17;100.00;50135.34;5050379;28;50942;-70
2021/12/02 02:16:21;;;;;;;;;6.00;6.00;;;;;-147.17;100.00;50151.09;5054197;28;50988;-70
2021/12/02 02:18:46;;;;;;;;;8.00;7.00;;;;;-147.17;100.00;50131.41;5052565;28;51832;-72
2021/12/02 02:21:15;;;;;;;;;9.00;7.00;;;;;-147.17;100.00;50147.16;5057023;28;51067;-73
2021/12/02 02:23:49;;;;;;;;;6.00;6.00;;;;;-147.17;100.00;50145.19;5062237;28;51233;-68
2021/12/02 02:26:17;;;;;;;;;6.50;6.50;;;;;-147.17;100.00;50143.22;5059551;28;51183;-68
2021/12/02 02:28:42;;;;;;;;;4.00;3.00;;;;;-147.17;100.00;50153.06;5065749;28;51878;-69
2021/12/02 02:31:07;;;;;;;;;7.00;6.00;;;;;-147.17;100.00;50149.13;5060511;28;50961;-69
2021/12/02 02:33:36;;;;;;;;;5.75;5.50;;;;;-147.17;100.00;50186.53;5059968;28;51109;-69
2021/12/02 02:36:04;;;;;;;;;4.75;4.75;;;;;-147.17;100.00;50174.72;5060660;28;50928;-69
2021/12/02 02:38:29;;;;;;;;;3.75;3.25;;;;;-147.17;100.00;50194.41;5058658;28;51806;-69
2021/12/02 02:40:57;;;;;;;;;5.00;4.00;;;;;-147.17;100.00;50176.69;5043899;28;51075;-69
2021/12/02 02:43:23;;;;;;;;;4.00;3.50;;;;;-147.17;100.00;50160.94;5052772;28;50968;-68
2021/12/02 02:45:49;;;;;;;;;6.25;3.25;;;;;-147.17;100.00;50178.66;5040615;28;50844;-68
2021/12/02 02:48:14;;;;;;;;;6.50;5.75;;;;;-147.17;100.00;50192.44;5057210;28;51865;-71
2021/12/02 02:50:40;;;;;;;;;6.00;4.75;;;;;-147.17;100.00;50170.78;5057620;28;51239;-72
2021/12/02 02:53:11;;;;;;;;;6.50;4.75;;;;;-147.17;100.00;50178.66;5057074;28;51152;-70
2021/12/02 02:55:36;;;;;;;;;5.00;4.00;;;;;-147.17;100.00;50174.72;5041567;28;51252;-68
2021/12/02 03:00:41;;;;;;;;;3.75;3.50;;;;;-147.17;100.00;50153.06;5046999;28;51097;-68
2021/12/02 03:03:33;;;;;;;;;5.00;5.00;;;;;-147.17;100.00;50182.59;5049876;28;51029;-68
2021/12/02 03:08:53;;;;;;;;;4.00;3.50;;;;;-147.17;100.00;50180.63;5038761;28;51162;-68
2021/12/02 03:11:19;;;;;;;;;4.00;4.00;;;;;-147.17;100.00;50225.91;5039107;28;51058;-67
2021/12/02 03:13:51;;;;;;;;;4.25;4.25;;;;;-147.17;100.00;50200.31;5040527;28;50962;-68
2021/12/02 03:19:24;;;;;;;;;3.00;1.00;;;;;-147.17;100.00;50218.03;5019663;28;51846;-67
2021/12/02 03:21:51;;;;;;;;;3.00;3.00;;;;;-147.17;100.00;50196.38;5030737;28;51223;-66
2021/12/02 03:24:16;;;;;;;;;3.00;3.00;;;;;-147.17;100.00;50190.47;5036152;28;51055;-68
2021/12/02 03:26:42;;;;;;;;;2.00;2.00;;;;;-147.17;100.00;50214.09;5035372;28;51427;-68
2021/12/02 03:29:07;;;;;;;;;2.50;2.00;;;;;-147.17;100.00;50198.34;5054613;28;51655;-68
2021/12/02 03:31:33;;;;;;;;;3.50;2.50;;;;;-147.17;100.00;50220.00;5054728;28;50911;-68
2021/12/02 03:33:59;;;;;;;;;2.50;2.00;;;;;-147.17;100.00;50237.72;5053148;28;51167;-68
2021/12/02 03:36:25;;;;;;;;;1.75;1.75;;;;;-147.17;100.00;50216.06;5050217;28;51274;-68
2021/12/02 03:38:50;;;;;;;;;2.33;2.00;;;;;-147.17;100.00;50245.59;5052900;28;52941;-69
2021/12/02 03:41:16;;;;;;;;;2.00;1.67;;;;;-147.17;100.00;50237.72;5046957;28;51155;-68
2021/12/02 03:43:44;;;;;;;;;1.33;1.00;;;;;-147.17;100.00;50247.56;5046075;28;51250;-67
2021/12/02 03:46:13;;;;;;;;;1.00;1.00;;;;;-147.17;100.00;50247.56;5049859;28;50892;-69
2021/12/02 03:48:38;;;;;;;;;1.00;1.00;;;;;-147.17;100.00;50265.28;5041705;28;51166;-68
2021/12/02 03:51:08;;;;;;;;;1.33;1.00;;;;;-147.17;100.00;50239.69;5042592;28;50990;-67
2021/12/02 03:53:34;;;;;;;;;1.00;1.00;;;;;-147.17;100.00;50263.31;5053725;28;51137;-67
2021/12/02 03:56:01;;;;;;;;;1.00;1.00;;;;;-147.17;100.00;50223.94;5035504;28;51222;-69
2021/12/02 03:58:27;;;;;;;;;2.00;2.00;;;;;-147.17;100.00;50235.75;5057719;28;53026;-69
2021/12/02 04:00:52;;;;;;;;;0.00;0.00;;;;;-147.17;100.00;50292.84;5054590;28;50926;-68
2021/12/02 04:03:17;;;;;;;;;0.67;0.67;;;;;-147.17;100.00;50249.53;5041188;28;51281;-69
2021/12/02 04:05:43;;;;;;;;;1.00;1.00;;;;;-147.17;100.00;50265.28;5046779;28;51264;-67
2021/12/02 04:08:11;;;;;;;;;1.00;1.00;;;;;-147.17;100.00;50261.34;5046147;28;51597;-68
2021/12/02 04:10:37;;;;;;;;;1.00;0.67;;;;;-147.17;100.00;50300.72;5043534;28;51130;-67
2021/12/02 04:15:39;;;;;;;;;1.00;1.00;;;;;-147.17;100.00;50277.09;5044017;28;51183;-68
2021/12/02 04:18:05;;;;;;;;;1.00;0.33;;;;;-147.17;100.00;50320.38;5043208;28;51983;-68
2021/12/02 04:20:31;;;;;;;;;1.75;1.00;;;;;-147.17;100.00;50326.28;5051568;28;51184;-68
2021/12/02 04:22:57;;;;;;;;;2.00;1.75;;;;;-147.17;100.00;50316.44;5051553;28;51085;-69
2021/12/02 04:25:23;;;;;;;;;3.00;2.50;;;;;-147.17;100.00;50304.66;5052784;28;51099;-69
2021/12/02 04:27:49;;;;;;;;;2.50;2.50;;;;;-147.17;100.00;50332.19;5054535;28;51105;-68
2021/12/02 04:30:18;;;;;;;;;3.50;3.00;;;;;-147.17;100.00;50351.88;5053353;28;51058;-68
2021/12/02 04:32:44;;;;;;;;;3.75;3.00;;;;;-147.17;100.00;50340.06;5052938;28;51112;-68
2021/12/02 04:35:11;;;;;;;;;2.25;2.00;;;;;-147.17;100.00;50340.06;5042890;28;51037;-68
2021/12/02 04:37:37;;;;;;;;;1.00;1.00;;;;;-147.17;100.00;50347.94;5053105;28;52164;-68
2021/12/02 04:40:03;;;;;;;;;1.33;1.33;;;;;-147.17;100.00;50347.94;5049491;28;51005;-68
2021/12/02 04:42:29;;;;;;;;;2.00;1.00;;;;;-147.17;100.00;50340.06;5053557;28;51306;-67
2021/12/02 04:44:55;;;;;;;;;1.00;0.33;;;;;-147.17;100.00;50344.00;5053164;28;51026;-68
2021/12/02 04:47:20;;;;;;;;;1.00;1.00;;;;;-147.17;100.00;50324.31;5054154;28;51490;-68
2021/12/02 04:49:46;;;;;;;;;1.00;0.00;;;;;-147.17;100.00;50340.06;5046451;28;51191;-68
2021/12/02 04:52:11;;;;;;;;;0.00;0.00;;;;;-147.17;100.00;50355.81;5039260;28;51208;-68
2021/12/02 04:54:37;;;;;;;;;0.00;0.00;;;;;-147.17;100.00;50338.09;5050080;28;51106;-68
2021/12/02 04:57:02;;;;;;;;;2.00;2.00;;;;;-147.17;100.00;50318.41;5049289;28;51739;-68
2021/12/02 04:59:28;;;;;;;;;1.25;1.00;;;;;-147.17;100.00;50336.13;5041753;28;51442;-68
2021/12/02 05:01:53;;;;;;;;;1.00;1.00;;;;;-147.17;100.00;50332.19;5050287;28;51169;-68
2021/12/02 05:04:19;;;;;;;;;0.25;0.25;;;;;-147.17;100.00;50347.94;5039211;28;51030;-68
2021/12/02 05:06:44;;;;;;;;;0.75;0.75;;;;;-147.17;100.00;50332.19;5066272;28;54247;-68
2021/12/02 05:09:10;;;;;;;;;1.00;1.00;;;;;-147.17;100.00;50320.38;5045488;28;51068;-68
2021/12/02 05:11:37;;;;;;;;;0.25;0.25;;;;;-147.17;100.00;50296.78;5049861;28;51002;-68
2021/12/02 05:14:03;;;;;;;;;1.00;1.00;;;;;-147.17;100.00;50316.44;5045955;28;51281;-67
2021/12/02 05:16:28;;;;;;;;;2.75;2.00;;;;;-147.17;100.00;50332.19;5052789;28;52216;-67
2021/12/02 05:18:53;;;;;;;;;1.50;1.00;;;;;-147.17;100.00;50300.72;5049171;28;51194;-68
2021/12/02 05:21:19;;;;;;;;;1.00;1.00;;;;;-147.17;100.00;50304.66;5052027;28;51175;-68
2021/12/02 05:23:44;;;;;;;;;0.50;0.00;;;;;-147.17;100.00;50314.47;5043311;28;51121;-68
2021/12/02 05:26:10;;;;;;;;;1.75;1.75;;;;;-147.17;100.00;50304.66;5052569;28;51041;-68
2021/12/02 05:28:36;;;;;;;;;1.00;0.50;;;;;-147.17;100.00;50304.66;5039765;28;51058;-68
2021/12/02 05:31:02;;;;;;;;;1.00;1.00;;;;;-147.17;100.00;50296.78;5044798;28;51584;-68
2021/12/02 05:33:28;;;;;;;;;1.00;1.00;;;;;-147.17;100.00;50296.78;5053292;28;51321;-69
2021/12/02 05:35:53;;;;;;;;;1.00;1.00;;;;;-147.17;100.00;50273.16;5052606;28;51703;-69
2021/12/02 05:38:18;;;;;;;;;4.75;3.75;;;;;-147.17;100.00;50351.88;5051424;28;51131;-68
2021/12/02 05:40:44;;;;;;;;;2.00;2.00;;;;;-147.17;100.00;50316.44;5052570;28;51425;-68
2021/12/02 05:43:09;;;;;;;;;1.00;1.00;;;;;-147.17;100.00;50300.72;5053335;28;51365;-67
2021/12/02 05:45:35;;;;;;;;;2.00;2.00;;;;;-147.17;100.00;50324.31;5047954;28;51061;-68
2021/12/02 05:48:00;;;;;;;;;2.75;2.75;;;;;-147.17;100.00;50302.69;5046642;28;51061;-67
2021/12/02 05:50:26;;;;;;;;;14.25;13.00;;;;;-147.17;100.00;50344.00;5037218;28;51239;-68
2021/12/02 05:52:52;;;;;;;;;2.00;2.00;;;;;-147.17;100.00;50300.72;5035689;28;51315;-68
2021/12/02 05:55:17;;;;;;;;;1.00;1.00;;;;;-147.17;100.00;50296.78;5042463;28;51204;-67
2021/12/02 05:57:43;;;;;;;;;2.25;1.25;;;;;-147.17;100.00;50357.78;5048191;28;51104;-69
2021/12/02 06:00:09;;;;;;;;;1.75;1.75;;;;;-147.17;100.00;50281.03;5051601;28;51179;-67
2021/12/02 06:02:37;;;;;;;;;3.00;2.00;;;;;-147.17;100.00;50312.53;5051865;28;51058;-67
2021/12/02 06:05:04;;;;;;;;;1.50;1.50;;;;;-147.17;100.00;50312.53;5038541;28;53069;-67
2021/12/02 06:07:31;;;;;;;;;3.00;2.00;;;;;-147.17;100.00;50312.53;5044180;28;51727;-68
2021/12/02 06:09:56;;;;;;;;;1.25;1.25;;;;;-147.17;100.00;50300.72;5066713;28;51283;-68
2021/12/02 06:12:21;;;;;;;;;1.25;1.00;;;;;-147.17;100.00;50304.66;5033767;28;51140;-67
2021/12/02 06:14:47;;;;;;;;;2.50;1.25;;;;;-147.17;100.00;50302.69;5038354;28;51842;-67
2021/12/02 06:17:12;;;;;;;;;1.75;1.75;;;;;-147.17;100.00;50296.78;5033734;28;51103;-68
2021/12/02 06:19:37;;;;;;;;;1.00;1.00;;;;;-147.17;100.00;50286.94;5051358;28;51156;-68
2021/12/02 06:22:04;;;;;;;;;5.50;5.00;;;;;-147.17;100.00;50298.75;5043771;28;51257;-68
2021/12/02 06:24:32;;;;;;;;;2.00;2.00;;;;;-147.17;100.00;50286.94;5050643;28;52658;-69
2021/12/02 06:26:58;;;;;;;;;6.00;2.00;;;;;-147.17;100.00;50320.38;5053210;28;51302;-69
2021/12/02 06:29:24;;;;;;;;;5.75;4.25;;;;;-147.17;100.00;50298.75;5040663;28;51063;-67
2021/12/02 06:31:50;;;;;;;;;1.25;1.25;;;;;-147.17;100.00;50300.72;5049217;28;51244;-67
2021/12/02 06:34:15;;;;;;;;;2.75;2.75;;;;;-147.17;100.00;50273.16;5048869;28;51761;-67
2021/12/02 06:36:41;;;;;;;;;2.50;2.50;;;;;-147.17;100.00;50332.19;5048852;28;55789;-67
2021/12/02 06:39:06;;;;;;;;;3.00;3.00;;;;;-147.17;100.00;50298.75;5052629;28;51036;-67
2021/12/02 06:41:33;;;;;;;;;2.00;2.00;;;;;-147.17;100.00;50308.59;5049450;28;50999;-68
2021/12/02 06:43:58;;;;;;;;;5.25;2.75;;;;;-147.17;100.00;50316.44;5042261;28;52045;-67
2021/12/02 06:46:24;;;;;;;;;4.50;4.50;;;;;-147.17;100.00;50296.78;5052124;28;51073;-68
2021/12/02 06:48:49;;;;;;;;;4.50;2.00;;;;;-147.17;100.00;50304.66;5053536;28;51139;-68
2021/12/02 06:51:17;;;;;;;;;2.25;1.75;;;;;-147.17;100.00;50292.84;5055177;28;51031;-67
2021/12/02 06:53:42;;;;;;;;;3.00;3.00;;;;;-147.17;100.00;50344.00;5052666;28;52864;-68
2021/12/02 06:56:08;;;;;;;;;1.75;1.50;;;;;-147.17;100.00;50300.72;5055682;28;51185;-67
2021/12/02 06:58:34;;;;;;;;;1.50;1.50;;;;;-147.17;100.00;50324.31;5046693;28;50905;-68
2021/12/02 07:00:59;;;;;;;;;3.75;3.00;;;;;-147.17;100.00;50336.13;5045492;28;50870;-68
2021/12/02 07:03:25;;;;;;;;;3.25;3.00;;;;;-147.17;100.00;50314.47;5053600;28;51979;-68
2021/12/02 07:05:50;;;;;;;;;2.75;2.00;;;;;-147.17;100.00;50277.09;5035643;28;50902;-69
2021/12/02 07:08:15;;;;;;;;;2.50;2.50;;;;;-147.17;100.00;50288.91;5040908;28;50939;-68
2021/12/02 07:10:41;;;;;;;;;3.00;3.00;;;;;-147.17;100.00;50324.31;5036122;28;51112;-69
2021/12/02 07:13:07;;;;;;;;;2.25;2.00;;;;;-147.17;100.00;50324.31;5034241;28;53715;-68
2021/12/02 07:15:41;;;;;;;;;1.00;1.00;;;;;-147.17;100.00;50334.16;5035722;28;51161;-68
2021/12/02 07:18:12;;;;;;;;;2.25;2.25;;;;;-147.17;100.00;50357.78;5038250;28;51083;-68
2021/12/02 07:20:39;;;;;;;;;2.50;2.00;;;;;-147.17;100.00;50344.00;5047934;28;51111;-68
2021/12/02 07:23:05;;;;;;;;;5.50;4.50;;;;;-147.17;100.00;50351.88;5053673;28;51752;-68
2021/12/02 07:25:32;;;;;;;;;2.00;2.00;;;;;-147.17;100.00;50347.94;5053268;28;50946;-68
2021/12/02 07:27:58;;;;;;;;;3.00;2.00;;;;;-147.17;100.00;50351.88;5050179;28;51219;-68
2021/12/02 07:30:24;;;;;;;;;1.00;1.00;;;;;-147.17;100.00;50336.13;5037846;28;51007;-68
2021/12/02 07:32:54;;;;;;;;;2.25;2.00;;;;;-147.17;100.00;50312.53;5059418;28;54320;-68
2021/12/02 07:35:20;;;;;;;;;6.00;3.00;;;;;-147.17;100.00;50320.38;5053931;28;51077;-69
2021/12/02 07:37:48;;;;;;;;;3.25;2.00;;;;;-147.17;100.00;50355.81;5047204;28;51185;-69
2021/12/02 07:40:16;;;;;;;;;2.75;2.50;;;;;-147.17;100.00;50340.06;5040102;28;51111;-70
2021/12/02 07:42:43;;;;;;;;;2.00;1.50;;;;;-147.17;100.00;50347.94;5046005;28;52162;-69
2021/12/02 07:45:09;;;;;;;;;2.00;2.00;;;;;-147.17;100.00;50373.53;5041873;28;51412;-68
2021/12/02 07:47:37;;;;;;;;;1.00;1.00;;;;;-147.17;100.00;50345.97;5050142;28;51237;-70
2021/12/02 07:50:04;;;;;;;;;1.75;1.00;;;;;-147.17;100.00;50345.97;5048250;28;51188;-69
2021/12/02 07:52:33;;;;;;;;;5.50;3.00;;;;;-147.17;100.00;50336.13;5039855;28;51871;-68
2021/12/02 07:55:03;;;;;;;;;2.50;2.25;;;;;-147.17;100.00;50344.00;5050668;28;51009;-68
2021/12/02 07:57:31;;;;;;;;;4.50;2.50;;;;;-147.17;100.00;50347.94;5052042;28;51109;-69
2021/12/02 07:59:57;;;;;;;;;3.00;2.00;;;;;-147.17;100.00;50336.13;5038994;28;50923;-69
2021/12/02 08:02:25;;;;;;;;;2.00;2.00;;;;;-147.17;100.00;50320.38;5044158;28;51849;-68
2021/12/02 08:04:50;;;;;;;;;4.75;3.00;;;;;-147.17;100.00;50328.25;5049389;28;51101;-68
2021/12/02 08:07:16;;;;;;;;;4.00;2.25;;;;;-147.17;100.00;50353.84;5041358;28;50973;-69
2021/12/02 08:09:41;;;;;;;;;2.00;2.00;;;;;-147.17;100.00;50320.38;5050162;28;51113;-70
2021/12/02 08:12:07;;;;;;;;;3.00;2.50;;;;;-147.17;100.00;50342.03;5043636;28;52559;-68
2021/12/02 08:14:32;;;;;;;;;4.50;2.00;;;;;-147.17;100.00;50359.75;5032409;28;51013;-68
2021/12/02 08:16:58;;;;;;;;;1.50;1.50;;;;;-147.17;100.00;50351.88;5048196;28;51077;-67
2021/12/02 08:19:24;;;;;;;;;1.50;1.50;;;;;-147.17;100.00;50359.75;5054443;28;51047;-67
2021/12/02 08:21:50;;;;;;;;;1.50;1.50;;;;;-147.17;100.00;50342.03;5050670;28;51641;-68
2021/12/02 08:24:16;;;;;;;;;2.75;2.25;;;;;-147.17;100.00;50338.09;5041490;28;51148;-69
2021/12/02 08:26:41;;;;;;;;;4.00;2.00;;;;;-147.17;100.00;50383.38;5036704;28;51003;-68
2021/12/02 08:29:06;;;;;;;;;2.25;2.25;;;;;-147.17;100.00;50355.81;5054410;28;50988;-67
2021/12/02 08:31:33;;;;;;;;;6.00;3.75;;;;;-147.17;100.00;50365.66;5049601;28;51802;-68
2021/12/02 08:33:59;;;;;;;;;2.00;2.00;;;;;-147.17;100.00;50318.41;5042733;28;51009;-68
2021/12/02 08:36:28;;;;;;;;;2.00;2.00;;;;;-147.17;100.00;50371.56;5042242;28;51276;-68
2021/12/02 08:38:53;;;;;;;;;3.00;2.00;;;;;-147.17;100.00;50347.94;5048930;28;51291;-68
2021/12/02 08:41:21;;;;;;;;;2.25;2.00;;;;;-147.17;100.00;50355.81;5043020;28;52769;-68
2021/12/02 08:43:47;;;;;;;;;5.00;3.00;;;;;-147.17;100.00;50334.16;5041051;28;51311;-67
2021/12/02 08:46:13;;;;;;;;;5.00;5.00;;;;;-147.17;100.00;50344.00;5033173;28;51058;-68
2021/12/02 08:48:39;;;;;;;;;2.00;2.00;;;;;-147.17;100.00;50363.69;5048988;28;51014;-66
2021/12/02 08:51:04;;;;;;;;;2.25;2.00;;;;;-147.17;100.00;50347.94;5045730;28;51352;-67
2021/12/02 08:53:30;;;;;;;;;6.25;2.75;;;;;-147.17;100.00;50324.31;5045441;28;50959;-68
2021/12/02 08:55:55;;;;;;;;;2.25;2.25;;;;;-147.17;100.00;50367.63;5052274;28;50953;-69
2021/12/02 08:58:21;;;;;;;;;2.75;1.75;;;;;-147.17;100.00;50330.22;5040928;28;51126;-68
2021/12/02 09:00:46;;;;;;;;;3.25;2.25;;;;;-147.17;100.00;50359.75;5046064;28;51579;-69
2021/12/02 09:03:14;;;;;;;;;3.00;3.00;;;;;-147.17;100.00;50399.13;5047469;28;51114;-68
2021/12/02 09:05:41;;;;;;;;;6.50;5.00;;;;;-147.17;100.00;50349.91;5039633;28;51065;-68
2021/12/02 09:08:07;;;;;;;;;2.00;2.00;;;;;-147.17;100.00;50344.00;5054539;28;51120;-68
2021/12/02 09:10:34;;;;;;;;;4.75;4.25;;;;;-147.17;100.00;50359.75;5051333;28;51933;-69
2021/12/02 09:13:03;;;;;;;;;12.50;11.75;;;;;-147.17;100.00;50371.56;5035806;28;51057;-70
2021/12/02 09:15:29;;;;;;;;;3.50;3.50;;;;;-147.17;100.00;50375.50;5039226;28;51058;-68
2021/12/02 09:17:54;;;;;;;;;2.75;2.75;;;;;-147.17;100.00;50375.50;5039787;28;51247;-69
2021/12/02 09:20:20;;;;;;;;;5.00;3.50;;;;;-147.17;100.00;50379.44;5049231;28;52052;-68
2021/12/02 09:22:45;;;;;;;;;3.00;3.00;;;;;-147.17;100.00;50405.03;5036030;28;51162;-67
2021/12/02 09:25:12;;;;;;;;;3.00;3.00;;;;;-147.17;100.00;50403.06;5049706;28;51069;-69
2021/12/02 09:27:37;;;;;;;;;6.00;3.00;;;;;-147.17;100.00;50357.78;5049209;28;51111;-68
2021/12/02 09:30:05;;;;;;;;;5.00;3.50;;;;;-147.17;100.00;50351.88;5053641;28;52226;-69
2021/12/02 09:32:30;;;;;;;;;7.00;6.00;;;;;-147.17;100.00;50371.56;5036202;28;50881;-68
2021/12/02 09:34:56;;;;;;;;;4.00;4.00;;;;;-147.17;100.00;50375.50;5050907;28;51300;-68
2021/12/02 09:37:22;;;;;;;;;4.00;3.00;;;;;-147.17;100.00;50391.25;5071876;28;51161;-67
2021/12/02 09:39:47;;;;;;;;;3.25;2.00;;;;;-147.17;100.00;50367.63;5052203;28;51010;-68
2021/12/02 09:42:14;;;;;;;;;3.00;2.75;;;;;-147.17;100.00;50345.97;5040573;28;51220;-68
2021/12/02 09:44:40;;;;;;;;;5.00;2.75;;;;;-147.17;100.00;50379.44;5032430;28;51132;-68
2021/12/02 09:47:07;;;;;;;;;5.00;2.67;;;;;-147.17;100.00;50395.19;5032863;28;50926;-69
2021/12/02 09:49:33;;;;;;;;;2.00;2.00;;;;;-147.17;100.00;50403.06;5042145;28;51840;-69
2021/12/02 09:52:02;;;;;;;;;3.00;3.00;;;;;-147.17;100.00;50401.09;5036368;28;51384;-68
2021/12/02 09:54:37;;;;;;;;;6.00;3.00;;;;;-147.17;100.00;50428.66;5039872;28;51095;-69
2021/12/02 09:57:05;;;;;;;;;7.50;7.50;;;;;-147.17;100.00;50399.13;5044878;28;51526;-69
2021/12/02 10:02:06;;;;;;;;;9.50;8.75;;;;;-147.17;100.00;50416.84;5040880;28;51417;-70
2021/12/02 10:04:39;;;;;;;;;5.75;5.25;;;;;-147.17;100.00;50414.88;5040533;28;51316;-69
2021/12/02 10:07:17;;;;;;;;;7.25;5.75;;;;;-147.17;100.00;50420.78;5042901;28;52227;-69
2021/12/02 10:10:02;;;;;;;;;7.00;4.75;;;;;-147.17;100.00;50458.19;5042046;28;51750;-69
2021/12/02 10:12:29;;;;;;;;;5.75;5.25;;;;;-147.17;100.00;50422.75;5045366;28;51049;-69
2021/12/02 10:14:58;;;;;;;;;3.50;3.00;;;;;-147.17;100.00;50434.56;5042808;28;50995;-70
2021/12/02 10:20:33;;;;;;;;;2.00;2.00;;;;;-147.17;100.00;50442.44;5034557;28;51810;-69
2021/12/02 10:23:15;;;;;;;;;1.00;1.00;;;;;-147.17;100.00;50466.06;5042389;28;51223;-70
2021/12/02 10:25:48;;;;;;;;;2.33;2.33;;;;;-147.17;100.00;50470.00;5037524;28;51106;-70
2021/12/02 10:28:15;;;;;;;;;6.00;4.00;;;;;-147.17;100.00;50454.25;5050014;28;51153;-70
2021/12/02 10:30:43;;;;;;;;;8.00;7.00;;;;;-147.17;100.00;50450.31;5050600;28;53295;-70
2021/12/02 10:33:09;;;;;;;;;3.75;3.75;;;;;-147.17;100.00;50456.22;5049986;28;50874;-71
2021/12/02 10:35:38;;;;;;;;;8.75;8.25;;;;;-147.17;99.54;50450.31;5031604;28;50960;-69
2021/12/02 10:38:03;;;;;;;;;2.67;2.67;;;;;-147.17;99.67;50456.22;5050769;28;51208;-69
2021/12/02 10:40:28;;;;;;;;;5.33;3.67;;;;;-147.17;99.65;50434.56;5051833;28;51153;-71
2021/12/02 10:42:54;;;;;;;;;4.00;2.25;;;;;-147.17;99.74;50454.25;5051881;28;51111;-70
2021/12/02 10:45:22;;;;;;;;;3.00;2.33;;;;;-147.17;98.29;50450.31;5052441;28;51395;-69
2021/12/02 10:47:49;;;;;;;;;2.00;1.67;;;;;-147.17;98.29;50487.72;5052166;28;51366;-69
2021/12/02 10:50:19;;;;;;;;;3.00;2.00;;;;;-147.17;97.00;50487.72;5050024;28;51567;-70
2021/12/02 10:52:45;;;;;;;;;3.33;3.00;;;;;-147.17;97.40;50462.13;5066565;28;51121;-70
2021/12/02 10:55:14;;;;;;;;;3.50;2.75;;;;;-147.17;96.82;50483.78;5051202;28;51018;-70
2021/12/02 10:57:47;;;;;;;;;3.67;2.00;;;;;-147.17;95.92;50501.50;5048369;28;51098;-71
2021/12/02 11:00:24;;;;;;;;;9.00;8.00;;;;;-147.17;95.57;50503.47;5031471;28;53410;-70
2021/12/02 11:02:53;;;;;;;;;3.75;2.75;;;;;-147.17;95.74;50458.19;5031805;28;51081;-70
2021/12/02 11:05:34;;;;;;;;;11.50;8.00;;;;;-147.17;95.26;50509.38;5043733;28;51370;-70
2021/12/02 11:08:06;;;;;;;;;2.00;2.00;;;;;-147.17;93.58;50495.59;5048426;28;51554;-71
2021/12/02 11:10:41;;;;;;;;;4.00;4.00;;;;;-147.17;93.44;50470.00;5031879;28;52383;-70
2021/12/02 11:13:09;;;;;;;;;4.67;3.00;;;;;-147.17;94.87;50473.94;5031181;28;51232;-70
2021/12/02 11:15:37;;;;;;;;;2.00;2.00;;;;;-147.17;94.38;50477.88;5031480;28;50956;-70
2021/12/02 11:18:05;;;;;;;;;3.00;3.00;;;;;-147.17;93.70;50507.41;5039815;28;51287;-70
2021/12/02 11:20:33;;;;;;;;;5.25;3.25;;;;;-147.17;92.86;50525.13;5049519;28;52047;-70
2021/12/02 11:23:06;;;;;;;;;2.00;2.00;;;;;-147.17;90.26;50533.00;5040699;28;50975;-69
2021/12/02 11:25:36;;;;;;;;;3.00;3.00;;;;;-147.17;89.16;50572.38;5041431;28;50955;-70
2021/12/02 11:28:07;;;;;;;;;3.00;3.00;;;;;-147.17;88.81;50544.81;5041915;28;51084;-71
2021/12/02 11:30:33;;;;;;;;;1.75;1.75;;;;;-147.17;86.87;50560.56;5051082;28;51020;-71